Time;durP1;ratioP1;P1;durP2;ratioP2;P2;SDS_P1;SDS_P2;PMS_P1;PMS_P2;Temp;Humidity;BMP_temperature;BMP_pressure;BME280_temperature;BME280_humidity;BME280_pressure;Samples;Min_cycle;Max_cycle;Signal;HPM_P1;HPM_P2
2022/11/14 00:01:33;;;;;;;21.47;16.73;;;;;5.10;98949.00;;;;16654782;28;20222;-69
2022/11/14 00:09:54;;;;;;;24.77;16.80;;;;;4.90;98940.00;;;;16648211;28;20219;-69
2022/11/14 00:18:17;;;;;;;21.10;16.93;;;;;5.20;98939.00;;;;16662031;28;20261;-70
2022/11/14 00:26:38;;;;;;;21.80;17.33;;;;;4.90;98942.00;;;;16631243;28;20227;-69
2022/11/14 00:35:00;;;;;;;21.47;16.30;;;;;5.00;98947.00;;;;16670195;28;20232;-68
2022/11/14 00:43:21;;;;;;;16.47;14.70;;;;;4.80;98932.00;;;;16661225;28;20230;-71
2022/11/14 00:51:43;;;;;;;18.87;14.70;;;;;4.90;98921.00;;;;16623228;28;20224;-71
2022/11/14 01:00:05;;;;;;;21.87;16.40;;;;;4.80;98928.00;;;;16653874;28;20766;-68
2022/11/14 01:08:27;;;;;;;18.90;16.17;;;;;4.80;98920.00;;;;16639830;28;20219;-71
2022/11/14 01:16:48;;;;;;;17.60;14.80;;;;;4.60;98919.00;;;;16653256;28;20224;-71
2022/11/14 01:25:11;;;;;;;21.47;14.90;;;;;4.40;98908.00;;;;16639943;28;20726;-70
2022/11/14 01:33:32;;;;;;;18.40;13.83;;;;;4.50;98913.00;;;;16655701;28;20234;-71
2022/11/14 01:41:54;;;;;;;19.87;14.93;;;;;4.50;98905.00;;;;16684099;28;20312;-72
2022/11/14 01:50:16;;;;;;;18.23;14.70;;;;;4.50;98892.00;;;;16682015;28;20258;-71
2022/11/14 01:58:40;;;;;;;20.63;16.00;;;;;4.80;98893.00;;;;16683090;28;20203;-69
2022/11/14 02:07:04;;;;;;;17.90;14.43;;;;;4.60;98886.00;;;;16665616;28;20224;-69
2022/11/14 02:15:26;;;;;;;17.67;15.50;;;;;4.50;98890.00;;;;16689274;28;20237;-71
2022/11/14 02:23:49;;;;;;;18.43;14.60;;;;;4.30;98880.00;;;;16678118;28;20268;-69
2022/11/14 02:32:10;;;;;;;18.93;14.40;;;;;4.30;98898.00;;;;16680741;28;20231;-68
2022/11/14 02:40:33;;;;;;;16.73;13.57;;;;;4.50;98880.00;;;;16682483;28;20289;-70
2022/11/14 02:48:54;;;;;;;18.37;15.37;;;;;5.00;98884.00;;;;16674150;28;20794;-72
2022/11/14 02:57:17;;;;;;;37.20;24.50;;;;;5.70;98879.00;;;;16656045;28;20224;-70
2022/11/14 03:05:38;;;;;;;29.50;20.50;;;;;5.70;98868.00;;;;16665937;28;20704;-70
2022/11/14 03:14:01;;;;;;;27.67;20.37;;;;;4.80;98851.00;;;;16639410;28;20225;-69
2022/11/14 03:22:22;;;;;;;25.47;17.77;;;;;5.30;98854.00;;;;16646343;28;20222;-70
2022/11/14 03:30:46;;;;;;;27.80;21.77;;;;;5.90;98827.00;;;;16634755;28;20230;-70
2022/11/14 03:39:08;;;;;;;30.63;24.23;;;;;6.20;98811.00;;;;16644936;28;20589;-71
2022/11/14 03:47:30;;;;;;;25.17;19.50;;;;;5.80;98812.00;;;;16660018;28;20235;-69
2022/11/14 03:55:51;;;;;;;31.90;23.40;;;;;5.40;98839.00;;;;16639153;28;20247;-69
2022/11/14 04:04:14;;;;;;;39.00;23.03;;;;;5.20;98851.00;;;;16670919;28;20228;-69
2022/11/14 04:12:35;;;;;;;26.17;21.60;;;;;5.30;98851.00;;;;16636657;28;20231;-69
2022/11/14 04:20:58;;;;;;;26.87;22.07;;;;;5.00;98864.00;;;;16653920;28;20248;-69
2022/11/14 04:29:19;;;;;;;22.93;20.30;;;;;5.00;98834.00;;;;16653791;28;20231;-69
2022/11/14 04:37:41;;;;;;;23.43;19.33;;;;;5.20;98807.00;;;;16645285;28;20226;-70
2022/11/14 04:46:02;;;;;;;21.20;18.87;;;;;5.10;98817.00;;;;16668485;28;20232;-70
2022/11/14 04:54:25;;;;;;;22.50;19.10;;;;;5.40;98818.00;;;;16642702;28;20597;-70
2022/11/14 05:02:46;;;;;;;19.13;17.10;;;;;5.40;98792.00;;;;16658329;28;20220;-69
2022/11/14 05:11:13;;;;;;;21.27;17.93;;;;;5.40;98771.00;;;;16642639;28;20228;-73
2022/11/14 05:19:33;;;;;;;19.63;16.80;;;;;5.20;98778.00;;;;16676665;28;20203;-70
2022/11/14 05:27:56;;;;;;;19.97;17.43;;;;;5.20;98772.00;;;;16643345;28;20226;-69
2022/11/14 05:36:17;;;;;;;19.97;17.83;;;;;5.20;98765.00;;;;16642844;28;20242;-71
2022/11/14 05:44:39;;;;;;;18.87;16.87;;;;;5.30;98770.00;;;;16639320;28;20317;-69
2022/11/14 05:53:01;;;;;;;20.67;17.90;;;;;5.50;98762.00;;;;16622267;28;20231;-69
2022/11/14 06:01:23;;;;;;;19.80;17.20;;;;;5.60;98765.00;;;;16633862;28;20235;-71
2022/11/14 06:09:44;;;;;;;25.60;18.00;;;;;5.60;98783.00;;;;16612981;28;20226;-72
2022/11/14 06:18:07;;;;;;;21.10;17.83;;;;;5.60;98779.00;;;;16603237;28;20215;-70
2022/11/14 06:26:30;;;;;;;18.03;16.07;;;;;6.20;98768.00;;;;16635855;28;20458;-69
2022/11/14 06:34:52;;;;;;;17.43;15.70;;;;;11.40;98720.00;;;;16637664;28;20655;-73
2022/11/14 06:43:13;;;;;;;13.97;11.27;;;;;14.90;98707.00;;;;16639263;28;20596;-74
2022/11/14 06:51:35;;;;;;;13.70;11.03;;;;;15.60;98693.00;;;;16606528;28;20239;-71
2022/11/14 06:59:56;;;;;;;13.53;9.80;;;;;12.90;98692.00;;;;16604769;28;20198;-70
2022/11/14 07:08:18;;;;;;;12.63;11.40;;;;;10.50;98715.00;;;;16600950;28;20699;-70
2022/11/14 07:16:39;;;;;;;13.20;11.80;;;;;8.60;98734.00;;;;16620151;28;20243;-73
2022/11/14 07:25:02;;;;;;;12.53;11.23;;;;;7.60;98756.00;;;;16612835;28;20254;-72
2022/11/14 07:33:23;;;;;;;14.87;13.40;;;;;7.60;98740.00;;;;16621834;28;20505;-72
2022/11/14 07:41:45;;;;;;;14.77;13.23;;;;;7.60;98766.00;;;;16628699;28;20253;-73
2022/11/14 07:50:07;;;;;;;13.17;11.30;;;;;7.40;98765.00;;;;16657926;28;20444;-72
2022/11/14 07:58:29;;;;;;;13.40;11.20;;;;;7.70;98777.00;;;;16638059;28;20691;-72
2022/11/14 08:06:51;;;;;;;18.13;13.73;;;;;6.80;98805.00;;;;16592380;28;20524;-73
2022/11/14 08:15:14;;;;;;;14.27;12.77;;;;;7.30;98806.00;;;;16601109;28;20317;-74
2022/11/14 08:23:35;;;;;;;17.07;15.27;;;;;6.60;98843.00;;;;16592629;28;20229;-71
2022/11/14 08:31:58;;;;;;;22.80;18.50;;;;;6.50;98835.00;;;;16603060;28;20226;-74
2022/11/14 08:40:19;;;;;;;20.27;17.83;;;;;6.80;98830.00;;;;16594001;28;20262;-72
2022/11/14 08:48:41;;;;;;;20.40;18.30;;;;;7.00;98829.00;;;;16608782;28;20235;-73
2022/11/14 08:57:03;;;;;;;20.03;17.40;;;;;7.40;98830.00;;;;16597224;28;20234;-73
2022/11/14 09:05:26;;;;;;;19.90;16.93;;;;;7.50;98825.00;;;;16598307;28;20226;-72
2022/11/14 09:13:47;;;;;;;15.57;13.90;;;;;7.90;98828.00;;;;16606780;28;20321;-73
2022/11/14 09:22:09;;;;;;;14.77;13.30;;;;;8.20;98822.00;;;;16597182;28;20222;-72
2022/11/14 09:30:31;;;;;;;17.90;15.60;;;;;8.10;98815.00;;;;16635558;28;20226;-71
2022/11/14 09:38:53;;;;;;;19.40;14.30;;;;;8.20;98822.00;;;;16622989;28;20198;-74
2022/11/14 09:47:20;;;;;;;13.53;12.17;;;;;8.60;98795.00;;;;16610948;28;20615;-72
2022/11/14 09:55:45;;;;;;;13.37;12.00;;;;;9.00;98777.00;;;;16612964;28;20478;-72
2022/11/14 10:04:17;;;;;;;11.20;10.07;;;;;9.40;98778.00;;;;16650585;28;20218;-73
2022/11/14 10:12:55;;;;;;;10.57;9.57;;;;;9.80;98773.00;;;;16626854;28;20229;-69
2022/11/14 10:21:29;;;;;;;12.03;10.87;;;;;9.80;98759.00;;;;16629483;28;20227;-70
2022/11/14 10:30:04;;;;;;;13.87;12.47;;;;;9.90;98755.00;;;;16623527;28;20231;-71
2022/11/14 10:38:32;;;;;;;12.00;10.70;;;;;9.80;98766.00;;;;16602633;28;20203;-71
2022/11/14 10:46:57;;;;;;;10.23;8.73;;;;;10.40;98757.00;;;;16636347;28;20226;-72
2022/11/14 10:55:20;;;;;;;10.70;8.70;;;;;10.70;98752.00;;;;16622417;28;20684;-71
2022/11/14 11:03:44;;;;;;;8.57;7.77;;;;;11.00;98751.00;;;;16622421;28;20222;-72
2022/11/14 11:12:07;;;;;;;7.40;5.90;;;;;11.60;98725.00;;;;16634132;28;20227;-71
2022/11/14 11:20:35;;;;;;;5.80;5.30;;;;;12.20;98703.00;;;;16629166;28;20195;-73
2022/11/14 11:29:04;;;;;;;7.67;5.00;;;;;12.70;98691.00;;;;16620696;28;20270;-72
2022/11/14 11:37:28;;;;;;;4.90;4.43;;;;;13.10;98695.00;;;;16621029;28;20215;-71
2022/11/14 11:45:50;;;;;;;4.30;3.90;;;;;13.40;98692.00;;;;16608044;28;20728;-71
2022/11/14 11:54:16;;;;;;;7.10;4.30;;;;;13.40;98679.00;;;;16601708;28;20233;-71
2022/11/14 12:02:40;;;;;;;5.60;4.97;;;;;13.60;98677.00;;;;16606744;28;20226;-71
2022/11/14 12:11:03;;;;;;;4.33;3.93;;;;;13.70;98673.00;;;;16605830;28;20222;-71
2022/11/14 12:19:39;;;;;;;2.90;2.70;;;;;13.90;98681.00;;;;16593670;28;20501;-71
2022/11/14 12:28:26;;;;;;;2.70;2.50;;;;;14.20;98676.00;;;;16597206;28;20219;-71
2022/11/14 12:36:47;;;;;;;2.60;2.00;;;;;14.90;98667.00;;;;16603382;28;20226;-76
2022/11/14 12:45:42;;;;;;;2.17;1.77;;;;;16.90;98649.00;;;;16611438;28;20262;-73
2022/11/14 12:54:04;;;;;;;2.47;1.90;;;;;16.10;98653.00;;;;16601655;28;20234;-74
2022/11/14 13:02:38;;;;;;;2.10;1.90;;;;;17.90;98619.00;;;;16605606;28;20590;-74
2022/11/14 13:11:00;;;;;;;2.00;1.80;;;;;18.40;98619.00;;;;16599082;28;20314;-73
2022/11/14 13:28:47;;;;;;;2.00;1.77;;;;;18.60;98605.00;;;;16626498;28;20672;-71
2022/11/14 13:37:20;;;;;;;2.20;2.00;;;;;18.10;98604.00;;;;16595090;28;20228;-73
2022/11/14 13:46:02;;;;;;;2.60;2.00;;;;;18.40;98603.00;;;;16594847;28;20228;-74
2022/11/14 13:54:23;;;;;;;2.13;2.03;;;;;17.60;98606.00;;;;16610566;28;20236;-72
2022/11/14 14:02:57;;;;;;;2.33;2.13;;;;;17.40;98607.00;;;;16614928;28;20316;-72
2022/11/14 14:11:35;;;;;;;2.07;1.87;;;;;17.30;98617.00;;;;16598102;28;20222;-71
2022/11/14 14:20:16;;;;;;;2.50;2.30;;;;;17.20;98612.00;;;;16632694;28;20203;-71
2022/11/14 14:28:44;;;;;;;2.17;1.90;;;;;17.00;98614.00;;;;16607739;28;20215;-74
2022/11/14 14:37:19;;;;;;;2.20;2.00;;;;;16.90;98606.00;;;;16597531;28;20577;-71
2022/11/14 14:45:47;;;;;;;3.77;3.47;;;;;16.80;98601.00;;;;16600474;28;20230;-74
2022/11/14 14:54:21;;;;;;;7.00;5.10;;;;;18.70;98607.00;;;;16603007;28;20230;-71
2022/11/14 15:02:43;;;;;;;4.73;4.10;;;;;18.60;98613.00;;;;16596485;28;20246;-72
2022/11/14 15:11:09;;;;;;;13.63;12.33;;;;;18.70;98627.00;;;;16600552;28;20227;-71
2022/11/14 15:19:37;;;;;;;4.37;3.77;;;;;14.00;98662.00;;;;16627853;28;20230;-71
2022/11/14 15:28:01;;;;;;;4.40;4.00;;;;;13.80;98677.00;;;;16610094;28;20223;-70
2022/11/14 15:36:22;;;;;;;4.70;3.30;;;;;13.00;98690.00;;;;16602945;28;20246;-71
2022/11/14 15:44:45;;;;;;;3.73;3.20;;;;;12.90;98683.00;;;;16603852;28;20231;-72
2022/11/14 15:53:14;;;;;;;6.80;5.97;;;;;12.70;98687.00;;;;16606229;28;20249;-70
2022/11/14 16:01:37;;;;;;;6.00;3.90;;;;;13.40;98697.00;;;;16596740;28;20228;-71
2022/11/14 16:09:58;;;;;;;8.53;5.20;;;;;14.30;98694.00;;;;16601358;28;20223;-73
2022/11/14 16:18:20;;;;;;;5.63;4.47;;;;;14.30;98683.00;;;;16609236;28;20622;-71
2022/11/14 16:26:42;;;;;;;7.07;5.00;;;;;14.40;98693.00;;;;16607167;28;20230;-73
2022/11/14 16:35:06;;;;;;;39.07;28.27;;;;;14.20;98704.00;;;;16650645;28;20230;-71
2022/11/14 16:43:26;;;;;;;6.30;5.70;;;;;14.30;98704.00;;;;16613565;28;20245;-71
2022/11/14 16:51:50;;;;;;;4.90;3.60;;;;;14.40;98703.00;;;;16602482;28;20227;-73
2022/11/14 17:00:13;;;;;;;5.00;4.50;;;;;14.40;98722.00;;;;16629510;28;20231;-72
2022/11/14 17:08:35;;;;;;;7.13;6.27;;;;;13.90;98729.00;;;;16620463;28;20222;-73
2022/11/14 17:16:57;;;;;;;58.50;24.37;;;;;11.80;98748.00;;;;16607918;28;20309;-72
2022/11/14 17:25:19;;;;;;;21.23;15.83;;;;;11.60;98748.00;;;;16601662;28;20246;-72
2022/11/14 17:33:40;;;;;;;11.50;10.27;;;;;11.00;98760.00;;;;16586132;28;20239;-71
2022/11/14 17:42:04;;;;;;;14.10;11.30;;;;;11.90;98755.00;;;;16600488;28;20706;-73
2022/11/14 17:50:25;;;;;;;8.50;6.83;;;;;13.20;98730.00;;;;16615323;28;20226;-75
2022/11/14 17:58:48;;;;;;;8.00;6.10;;;;;13.60;98729.00;;;;16605624;28;20285;-74
2022/11/14 18:07:09;;;;;;;7.77;6.97;;;;;13.70;98738.00;;;;16592482;28;20230;-73
2022/11/14 18:15:32;;;;;;;8.50;7.67;;;;;13.70;98729.00;;;;16603718;28;20698;-72
2022/11/14 18:23:55;;;;;;;7.30;6.60;;;;;13.70;98714.00;;;;16632264;28;20404;-71
2022/11/14 18:32:17;;;;;;;7.57;6.87;;;;;13.70;98714.00;;;;16622197;28;20615;-71
2022/11/14 18:40:39;;;;;;;8.63;7.73;;;;;13.70;98712.00;;;;16618173;28;20214;-71
2022/11/14 18:49:01;;;;;;;12.33;9.03;;;;;13.70;98702.00;;;;16609495;28;20658;-71
2022/11/14 18:57:22;;;;;;;8.00;7.27;;;;;13.70;98695.00;;;;16605613;28;20222;-72
2022/11/14 19:05:45;;;;;;;10.90;9.30;;;;;13.50;98702.00;;;;16615046;28;20678;-71
2022/11/14 19:14:07;;;;;;;13.13;10.40;;;;;13.70;98696.00;;;;16620645;28;20259;-71
2022/11/14 19:22:29;;;;;;;14.23;10.47;;;;;13.30;98707.00;;;;16608591;28;20223;-72
2022/11/14 19:30:50;;;;;;;8.90;8.00;;;;;13.30;98715.00;;;;16625386;28;20584;-71
2022/11/14 19:39:12;;;;;;;9.90;7.20;;;;;13.40;98722.00;;;;16617094;28;20301;-72
2022/11/14 19:47:33;;;;;;;7.57;6.83;;;;;13.60;98723.00;;;;16597346;28;20219;-71
2022/11/14 19:56:01;;;;;;;15.50;13.97;;;;;13.00;98738.00;;;;16593190;28;20238;-73
2022/11/14 20:04:22;;;;;;;11.03;8.93;;;;;11.20;98751.00;;;;16602974;28;20222;-70
2022/11/14 20:12:45;;;;;;;15.53;12.40;;;;;10.80;98757.00;;;;16606624;28;20229;-71
2022/11/14 20:21:08;;;;;;;11.90;10.80;;;;;10.80;98753.00;;;;16615639;28;20221;-72
2022/11/14 20:29:31;;;;;;;10.43;9.33;;;;;10.30;98775.00;;;;16592058;28;20215;-70
2022/11/14 20:37:52;;;;;;;9.13;8.10;;;;;10.40;98771.00;;;;16590331;28;20223;-70
2022/11/14 20:46:16;;;;;;;10.80;9.80;;;;;9.80;98775.00;;;;16595864;28;20598;-70
2022/11/14 20:54:37;;;;;;;12.53;10.57;;;;;9.90;98776.00;;;;16591193;28;20237;-70
2022/11/14 21:03:00;;;;;;;12.07;9.80;;;;;10.10;98764.00;;;;16593369;28;20243;-70
2022/11/14 21:11:22;;;;;;;11.77;10.57;;;;;10.40;98758.00;;;;16586636;28;20230;-70
2022/11/14 21:19:44;;;;;;;9.87;8.87;;;;;10.40;98755.00;;;;16591091;28;20207;-71
2022/11/14 21:28:06;;;;;;;10.57;9.47;;;;;10.30;98756.00;;;;16587162;28;20238;-72
2022/11/14 21:36:29;;;;;;;9.60;8.70;;;;;10.50;98749.00;;;;16586558;28;20231;-70
2022/11/14 21:44:52;;;;;;;11.33;10.17;;;;;10.50;98744.00;;;;16587899;28;20239;-70
2022/11/14 21:53:15;;;;;;;12.20;9.93;;;;;10.10;98750.00;;;;16600446;28;20494;-72
2022/11/14 22:10:17;;;;;;;10.50;9.47;;;;;10.10;98755.00;;;;16600921;28;20692;-70
2022/11/14 22:18:38;;;;;;;11.00;9.93;;;;;10.20;98749.00;;;;16603266;28;20348;-70
2022/11/14 22:27:00;;;;;;;14.43;12.93;;;;;9.80;98761.00;;;;16602322;28;20219;-71
2022/11/14 22:35:21;;;;;;;9.80;8.80;;;;;9.70;98759.00;;;;16620029;28;20223;-70
2022/11/14 22:43:44;;;;;;;11.43;10.30;;;;;9.70;98768.00;;;;16610052;28;20246;-69
2022/11/14 22:52:05;;;;;;;13.13;10.40;;;;;9.70;98764.00;;;;16605938;28;20258;-70
2022/11/14 23:00:27;;;;;;;15.40;13.43;;;;;9.80;98756.00;;;;16605920;28;20195;-70
2022/11/14 23:08:48;;;;;;;12.53;11.10;;;;;9.90;98751.00;;;;16610164;28;20672;-69
2022/11/14 23:17:11;;;;;;;9.90;9.00;;;;;10.00;98755.00;;;;16601171;28;20687;-70
2022/11/14 23:25:32;;;;;;;7.67;6.80;;;;;9.90;98744.00;;;;16609577;28;20227;-70
2022/11/14 23:33:56;;;;;;;11.53;9.17;;;;;11.00;98736.00;;;;16610708;28;20255;-70
2022/11/14 23:42:17;;;;;;;10.07;9.07;;;;;10.60;98720.00;;;;16604541;28;20231;-70
2022/11/14 23:50:40;;;;;;;13.40;8.60;;;;;10.60;98719.00;;;;16606553;28;20218;-70
2022/11/14 23:59:00;;;;;;;9.83;8.60;;;;;10.70;98707.00;;;;16602999;28;20219;-70
